sensor_id;sensor_type;location;lat;lon;timestamp;temperature;humidity
14529;DHT22;7351;51.194;4.098;2023-05-19T00:02:22;19.70;99.90
14529;DHT22;7351;51.194;4.098;2023-05-19T00:04:50;19.70;99.90
14529;DHT22;7351;51.194;4.098;2023-05-19T00:07:18;19.70;99.90
14529;DHT22;7351;51.194;4.098;2023-05-19T00:09:47;19.70;99.90
14529;DHT22;7351;51.194;4.098;2023-05-19T00:12:17;19.70;99.90
14529;DHT22;7351;51.194;4.098;2023-05-19T00:14:44;19.70;99.90
14529;DHT22;7351;51.194;4.098;2023-05-19T00:17:13;19.70;99.90
14529;DHT22;7351;51.194;4.098;2023-05-19T00:19:41;19.70;99.90
14529;DHT22;7351;51.194;4.098;2023-05-19T00:22:09;19.70;99.90
14529;DHT22;7351;51.194;4.098;2023-05-19T00:24:36;19.70;99.90
14529;DHT22;7351;51.194;4.098;2023-05-19T00:27:05;19.60;99.90
14529;DHT22;7351;51.194;4.098;2023-05-19T00:29:32;19.60;99.90
14529;DHT22;7351;51.194;4.098;2023-05-19T00:31:59;19.70;99.90
14529;DHT22;7351;51.194;4.098;2023-05-19T00:34:26;19.70;99.90
14529;DHT22;7351;51.194;4.098;2023-05-19T00:36:52;19.70;99.90
14529;DHT22;7351;51.194;4.098;2023-05-19T00:39:19;19.70;99.90
14529;DHT22;7351;51.194;4.098;2023-05-19T00:41:46;19.70;99.90
14529;DHT22;7351;51.194;4.098;2023-05-19T00:44:15;19.70;99.90
14529;DHT22;7351;51.194;4.098;2023-05-19T00:46:42;19.70;99.90
14529;DHT22;7351;51.194;4.098;2023-05-19T00:49:08;19.60;99.90
14529;DHT22;7351;51.194;4.098;2023-05-19T00:51:36;19.60;99.90
14529;DHT22;7351;51.194;4.098;2023-05-19T00:54:03;19.60;99.90
14529;DHT22;7351;51.194;4.098;2023-05-19T00:56:30;19.60;99.90
14529;DHT22;7351;51.194;4.098;2023-05-19T00:59:00;19.60;99.90
14529;DHT22;7351;51.194;4.098;2023-05-19T01:01:29;19.60;99.90
14529;DHT22;7351;51.194;4.098;2023-05-19T01:03:57;19.50;99.90
14529;DHT22;7351;51.194;4.098;2023-05-19T01:06:24;19.60;99.90
14529;DHT22;7351;51.194;4.098;2023-05-19T01:08:53;19.60;99.90
14529;DHT22;7351;51.194;4.098;2023-05-19T01:11:20;19.60;99.90
14529;DHT22;7351;51.194;4.098;2023-05-19T01:13:47;19.60;99.90
14529;DHT22;7351;51.194;4.098;2023-05-19T01:16:21;19.60;99.90
14529;DHT22;7351;51.194;4.098;2023-05-19T01:18:56;19.60;99.90
14529;DHT22;7351;51.194;4.098;2023-05-19T01:21:46;19.60;99.90
14529;DHT22;7351;51.194;4.098;2023-05-19T01:24:56;19.50;99.90
14529;DHT22;7351;51.194;4.098;2023-05-19T01:27:46;19.50;99.90
14529;DHT22;7351;51.194;4.098;2023-05-19T01:30:29;19.50;99.90
14529;DHT22;7351;51.194;4.098;2023-05-19T01:32:59;19.50;99.90
14529;DHT22;7351;51.194;4.098;2023-05-19T01:35:27;19.50;99.90
14529;DHT22;7351;51.194;4.098;2023-05-19T01:37:56;19.50;99.90
14529;DHT22;7351;51.194;4.098;2023-05-19T01:40:25;19.50;99.90
14529;DHT22;7351;51.194;4.098;2023-05-19T01:42:56;19.50;99.90
14529;DHT22;7351;51.194;4.098;2023-05-19T01:45:24;19.50;99.90
14529;DHT22;7351;51.194;4.098;2023-05-19T01:47:55;19.50;99.90
14529;DHT22;7351;51.194;4.098;2023-05-19T01:50:22;19.50;99.90
14529;DHT22;7351;51.194;4.098;2023-05-19T01:52:49;19.40;99.90
14529;DHT22;7351;51.194;4.098;2023-05-19T01:55:16;19.40;99.90
14529;DHT22;7351;51.194;4.098;2023-05-19T01:57:49;19.40;99.90
14529;DHT22;7351;51.194;4.098;2023-05-19T02:00:21;19.40;99.90
14529;DHT22;7351;51.194;4.098;2023-05-19T02:02:58;19.40;99.90
14529;DHT22;7351;51.194;4.098;2023-05-19T02:05:37;19.40;99.90
14529;DHT22;7351;51.194;4.098;2023-05-19T02:08:12;19.40;99.90
14529;DHT22;7351;51.194;4.098;2023-05-19T02:10:40;19.40;99.90
14529;DHT22;7351;51.194;4.098;2023-05-19T02:13:12;19.40;99.90
14529;DHT22;7351;51.194;4.098;2023-05-19T02:15:40;19.40;99.90
14529;DHT22;7351;51.194;4.098;2023-05-19T02:18:10;19.40;99.90
14529;DHT22;7351;51.194;4.098;2023-05-19T02:20:38;19.40;99.90
14529;DHT22;7351;51.194;4.098;2023-05-19T02:23:05;19.40;99.90
14529;DHT22;7351;51.194;4.098;2023-05-19T02:25:32;19.40;99.90
14529;DHT22;7351;51.194;4.098;2023-05-19T02:27:59;19.40;99.90
14529;DHT22;7351;51.194;4.098;2023-05-19T02:30:26;19.40;99.90
14529;DHT22;7351;51.194;4.098;2023-05-19T02:32:53;19.30;99.90
14529;DHT22;7351;51.194;4.098;2023-05-19T02:35:21;19.30;99.90
14529;DHT22;7351;51.194;4.098;2023-05-19T02:37:48;19.30;99.90
14529;DHT22;7351;51.194;4.098;2023-05-19T02:40:16;19.30;99.90
14529;DHT22;7351;51.194;4.098;2023-05-19T02:42:43;19.30;99.90
14529;DHT22;7351;51.194;4.098;2023-05-19T02:45:11;19.30;99.90
14529;DHT22;7351;51.194;4.098;2023-05-19T02:47:37;19.30;99.90
14529;DHT22;7351;51.194;4.098;2023-05-19T02:50:07;19.30;99.90
14529;DHT22;7351;51.194;4.098;2023-05-19T02:52:35;19.30;99.90
14529;DHT22;7351;51.194;4.098;2023-05-19T02:55:03;19.30;99.90
14529;DHT22;7351;51.194;4.098;2023-05-19T02:57:33;19.30;99.90
14529;DHT22;7351;51.194;4.098;2023-05-19T03:00:00;19.30;99.90
14529;DHT22;7351;51.194;4.098;2023-05-19T03:02:27;19.30;99.90
14529;DHT22;7351;51.194;4.098;2023-05-19T03:04:54;19.30;99.90
14529;DHT22;7351;51.194;4.098;2023-05-19T03:07:21;19.30;99.90
14529;DHT22;7351;51.194;4.098;2023-05-19T03:09:51;19.30;99.90
14529;DHT22;7351;51.194;4.098;2023-05-19T03:12:18;19.30;99.90
14529;DHT22;7351;51.194;4.098;2023-05-19T03:14:45;19.30;99.90
14529;DHT22;7351;51.194;4.098;2023-05-19T03:17:12;19.30;99.90
14529;DHT22;7351;51.194;4.098;2023-05-19T03:19:39;19.20;99.90
14529;DHT22;7351;51.194;4.098;2023-05-19T03:22:07;19.20;99.90
14529;DHT22;7351;51.194;4.098;2023-05-19T03:24:34;19.30;99.90
14529;DHT22;7351;51.194;4.098;2023-05-19T03:27:02;19.20;99.90
14529;DHT22;7351;51.194;4.098;2023-05-19T03:29:30;19.20;99.90
14529;DHT22;7351;51.194;4.098;2023-05-19T03:31:57;19.20;99.90
14529;DHT22;7351;51.194;4.098;2023-05-19T03:34:24;19.20;99.90
14529;DHT22;7351;51.194;4.098;2023-05-19T03:36:52;19.10;99.90
14529;DHT22;7351;51.194;4.098;2023-05-19T03:39:18;19.10;99.90
14529;DHT22;7351;51.194;4.098;2023-05-19T03:41:45;19.10;99.90
14529;DHT22;7351;51.194;4.098;2023-05-19T03:44:14;19.20;99.90
14529;DHT22;7351;51.194;4.098;2023-05-19T03:46:41;19.10;99.90
14529;DHT22;7351;51.194;4.098;2023-05-19T03:49:08;19.20;99.90
14529;DHT22;7351;51.194;4.098;2023-05-19T03:51:36;19.10;99.90
14529;DHT22;7351;51.194;4.098;2023-05-19T03:54:03;19.10;99.90
14529;DHT22;7351;51.194;4.098;2023-05-19T03:56:30;19.10;99.90
14529;DHT22;7351;51.194;4.098;2023-05-19T03:58:57;19.10;99.90
14529;DHT22;7351;51.194;4.098;2023-05-19T04:01:26;19.20;99.90
14529;DHT22;7351;51.194;4.098;2023-05-19T04:03:53;19.10;99.90
14529;DHT22;7351;51.194;4.098;2023-05-19T04:06:20;19.10;99.90
14529;DHT22;7351;51.194;4.098;2023-05-19T04:08:48;19.10;99.90
14529;DHT22;7351;51.194;4.098;2023-05-19T04:11:15;19.10;99.90
14529;DHT22;7351;51.194;4.098;2023-05-19T04:13:44;19.10;99.90
14529;DHT22;7351;51.194;4.098;2023-05-19T04:16:11;19.10;99.90
14529;DHT22;7351;51.194;4.098;2023-05-19T04:18:39;19.10;99.90
14529;DHT22;7351;51.194;4.098;2023-05-19T04:21:06;19.10;99.90
14529;DHT22;7351;51.194;4.098;2023-05-19T04:23:33;19.10;99.90
14529;DHT22;7351;51.194;4.098;2023-05-19T04:26:00;19.10;99.90
14529;DHT22;7351;51.194;4.098;2023-05-19T04:28:28;19.10;99.90
14529;DHT22;7351;51.194;4.098;2023-05-19T04:30:55;19.00;99.90
14529;DHT22;7351;51.194;4.098;2023-05-19T04:33:23;19.00;99.90
14529;DHT22;7351;51.194;4.098;2023-05-19T04:35:51;19.00;99.90
14529;DHT22;7351;51.194;4.098;2023-05-19T04:38:18;18.90;99.90
14529;DHT22;7351;51.194;4.098;2023-05-19T04:40:46;18.90;99.90
14529;DHT22;7351;51.194;4.098;2023-05-19T04:43:16;18.90;99.90
14529;DHT22;7351;51.194;4.098;2023-05-19T04:45:43;18.90;99.90
14529;DHT22;7351;51.194;4.098;2023-05-19T04:48:11;18.90;99.90
14529;DHT22;7351;51.194;4.098;2023-05-19T04:50:39;18.90;99.90
14529;DHT22;7351;51.194;4.098;2023-05-19T04:53:08;18.90;99.90
14529;DHT22;7351;51.194;4.098;2023-05-19T04:55:36;19.00;99.90
14529;DHT22;7351;51.194;4.098;2023-05-19T04:58:03;19.00;99.90
14529;DHT22;7351;51.194;4.098;2023-05-19T05:00:30;19.00;99.90
14529;DHT22;7351;51.194;4.098;2023-05-19T05:03:00;19.00;99.90
14529;DHT22;7351;51.194;4.098;2023-05-19T05:05:29;18.90;99.90
14529;DHT22;7351;51.194;4.098;2023-05-19T05:07:57;19.00;99.90
14529;DHT22;7351;51.194;4.098;2023-05-19T05:10:25;18.90;99.90
14529;DHT22;7351;51.194;4.098;2023-05-19T05:12:52;19.00;99.90
14529;DHT22;7351;51.194;4.098;2023-05-19T05:15:20;19.00;99.90
14529;DHT22;7351;51.194;4.098;2023-05-19T05:17:49;19.00;99.90
14529;DHT22;7351;51.194;4.098;2023-05-19T05:20:16;19.00;99.90
14529;DHT22;7351;51.194;4.098;2023-05-19T05:22:45;19.00;99.90
14529;DHT22;7351;51.194;4.098;2023-05-19T05:25:13;19.00;99.90
14529;DHT22;7351;51.194;4.098;2023-05-19T05:27:42;19.00;99.90
14529;DHT22;7351;51.194;4.098;2023-05-19T05:30:09;19.00;99.90
14529;DHT22;7351;51.194;4.098;2023-05-19T05:32:36;19.00;99.90
14529;DHT22;7351;51.194;4.098;2023-05-19T05:35:04;19.00;99.90
14529;DHT22;7351;51.194;4.098;2023-05-19T05:37:31;19.00;99.90
14529;DHT22;7351;51.194;4.098;2023-05-19T05:39:58;19.00;99.90
14529;DHT22;7351;51.194;4.098;2023-05-19T05:42:25;19.00;99.90
14529;DHT22;7351;51.194;4.098;2023-05-19T05:44:54;19.00;99.90
14529;DHT22;7351;51.194;4.098;2023-05-19T05:47:21;19.00;99.90
14529;DHT22;7351;51.194;4.098;2023-05-19T05:49:49;19.00;99.90
14529;DHT22;7351;51.194;4.098;2023-05-19T05:52:17;19.00;99.90
14529;DHT22;7351;51.194;4.098;2023-05-19T05:54:47;19.00;99.90
14529;DHT22;7351;51.194;4.098;2023-05-19T05:57:14;19.10;99.90
14529;DHT22;7351;51.194;4.098;2023-05-19T05:59:41;19.00;99.90
14529;DHT22;7351;51.194;4.098;2023-05-19T06:02:11;19.00;99.90
14529;DHT22;7351;51.194;4.098;2023-05-19T06:04:38;19.10;99.90
14529;DHT22;7351;51.194;4.098;2023-05-19T06:07:05;19.10;99.90
14529;DHT22;7351;51.194;4.098;2023-05-19T06:09:32;19.00;99.90
14529;DHT22;7351;51.194;4.098;2023-05-19T06:11:59;19.00;99.90
14529;DHT22;7351;51.194;4.098;2023-05-19T06:14:26;19.10;99.90
14529;DHT22;7351;51.194;4.098;2023-05-19T06:16:53;19.10;99.90
14529;DHT22;7351;51.194;4.098;2023-05-19T06:19:21;19.10;99.90
14529;DHT22;7351;51.194;4.098;2023-05-19T06:21:49;19.10;99.90
14529;DHT22;7351;51.194;4.098;2023-05-19T06:24:16;19.00;99.90
14529;DHT22;7351;51.194;4.098;2023-05-19T06:26:43;19.00;99.90
14529;DHT22;7351;51.194;4.098;2023-05-19T06:29:10;19.00;99.90
14529;DHT22;7351;51.194;4.098;2023-05-19T06:31:37;19.00;99.90
14529;DHT22;7351;51.194;4.098;2023-05-19T06:34:04;19.00;99.90
14529;DHT22;7351;51.194;4.098;2023-05-19T06:36:32;19.00;99.90
14529;DHT22;7351;51.194;4.098;2023-05-19T06:39:00;19.00;99.90
14529;DHT22;7351;51.194;4.098;2023-05-19T06:41:27;19.00;99.90
14529;DHT22;7351;51.194;4.098;2023-05-19T06:43:54;19.00;99.90
14529;DHT22;7351;51.194;4.098;2023-05-19T06:46:24;19.00;99.90
14529;DHT22;7351;51.194;4.098;2023-05-19T06:48:51;19.00;99.90
14529;DHT22;7351;51.194;4.098;2023-05-19T06:51:18;18.90;99.90
14529;DHT22;7351;51.194;4.098;2023-05-19T06:53:47;18.90;99.90
14529;DHT22;7351;51.194;4.098;2023-05-19T06:56:14;18.90;99.90
14529;DHT22;7351;51.194;4.098;2023-05-19T06:58:43;18.90;99.90
14529;DHT22;7351;51.194;4.098;2023-05-19T07:01:11;19.00;99.90
14529;DHT22;7351;51.194;4.098;2023-05-19T07:03:38;19.00;99.90
14529;DHT22;7351;51.194;4.098;2023-05-19T07:06:05;18.90;99.90
14529;DHT22;7351;51.194;4.098;2023-05-19T07:08:32;19.00;99.90
14529;DHT22;7351;51.194;4.098;2023-05-19T07:11:00;18.90;99.90
14529;DHT22;7351;51.194;4.098;2023-05-19T07:13:27;18.90;99.90
14529;DHT22;7351;51.194;4.098;2023-05-19T07:15:54;18.90;99.90
14529;DHT22;7351;51.194;4.098;2023-05-19T07:18:21;19.00;99.90
14529;DHT22;7351;51.194;4.098;2023-05-19T07:20:48;19.00;99.90
14529;DHT22;7351;51.194;4.098;2023-05-19T07:23:17;19.00;99.90
14529;DHT22;7351;51.194;4.098;2023-05-19T07:25:44;19.00;99.90
14529;DHT22;7351;51.194;4.098;2023-05-19T07:28:12;19.00;99.90
14529;DHT22;7351;51.194;4.098;2023-05-19T07:30:39;19.00;99.90
14529;DHT22;7351;51.194;4.098;2023-05-19T07:33:06;18.90;99.90
14529;DHT22;7351;51.194;4.098;2023-05-19T07:35:33;19.00;99.90
14529;DHT22;7351;51.194;4.098;2023-05-19T07:38:00;19.00;99.90
14529;DHT22;7351;51.194;4.098;2023-05-19T07:40:28;19.00;99.90
14529;DHT22;7351;51.194;4.098;2023-05-19T07:42:55;19.00;99.90
14529;DHT22;7351;51.194;4.098;2023-05-19T07:45:23;18.90;99.90
14529;DHT22;7351;51.194;4.098;2023-05-19T07:47:51;18.90;99.90
14529;DHT22;7351;51.194;4.098;2023-05-19T07:50:19;18.90;99.90
14529;DHT22;7351;51.194;4.098;2023-05-19T07:52:46;19.00;99.90
14529;DHT22;7351;51.194;4.098;2023-05-19T07:55:12;19.00;99.90
14529;DHT22;7351;51.194;4.098;2023-05-19T07:57:39;19.00;99.90
14529;DHT22;7351;51.194;4.098;2023-05-19T08:00:07;19.00;99.90
14529;DHT22;7351;51.194;4.098;2023-05-19T08:02:38;19.00;99.90
14529;DHT22;7351;51.194;4.098;2023-05-19T08:05:06;19.00;99.90
14529;DHT22;7351;51.194;4.098;2023-05-19T08:07:34;19.10;99.90
14529;DHT22;7351;51.194;4.098;2023-05-19T08:10:01;19.00;99.90
14529;DHT22;7351;51.194;4.098;2023-05-19T08:12:28;19.10;99.90
14529;DHT22;7351;51.194;4.098;2023-05-19T08:14:55;19.10;99.90
14529;DHT22;7351;51.194;4.098;2023-05-19T08:17:22;19.10;99.90
14529;DHT22;7351;51.194;4.098;2023-05-19T08:19:50;19.10;99.90
14529;DHT22;7351;51.194;4.098;2023-05-19T08:22:17;19.10;99.90
14529;DHT22;7351;51.194;4.098;2023-05-19T08:24:44;19.10;99.90
14529;DHT22;7351;51.194;4.098;2023-05-19T08:27:14;19.20;99.90
14529;DHT22;7351;51.194;4.098;2023-05-19T08:29:42;19.20;99.90
14529;DHT22;7351;51.194;4.098;2023-05-19T08:32:09;19.20;99.90
14529;DHT22;7351;51.194;4.098;2023-05-19T08:34:37;19.20;99.90
14529;DHT22;7351;51.194;4.098;2023-05-19T08:37:06;19.20;99.90
14529;DHT22;7351;51.194;4.098;2023-05-19T08:39:33;19.20;99.90
14529;DHT22;7351;51.194;4.098;2023-05-19T08:42:00;19.20;99.90
14529;DHT22;7351;51.194;4.098;2023-05-19T08:44:27;19.20;99.90
14529;DHT22;7351;51.194;4.098;2023-05-19T08:47:00;19.20;99.90
14529;DHT22;7351;51.194;4.098;2023-05-19T08:49:32;19.20;99.90
14529;DHT22;7351;51.194;4.098;2023-05-19T08:52:04;19.20;99.90
14529;DHT22;7351;51.194;4.098;2023-05-19T08:54:39;19.30;99.90
14529;DHT22;7351;51.194;4.098;2023-05-19T08:57:08;19.20;99.90
14529;DHT22;7351;51.194;4.098;2023-05-19T08:59:36;19.30;99.90
14529;DHT22;7351;51.194;4.098;2023-05-19T09:02:04;19.30;99.90
14529;DHT22;7351;51.194;4.098;2023-05-19T09:04:31;19.30;99.90
14529;DHT22;7351;51.194;4.098;2023-05-19T09:06:58;19.30;99.90
14529;DHT22;7351;51.194;4.098;2023-05-19T09:09:28;19.30;99.90
14529;DHT22;7351;51.194;4.098;2023-05-19T09:11:57;19.30;99.90
14529;DHT22;7351;51.194;4.098;2023-05-19T09:14:24;19.30;99.90
14529;DHT22;7351;51.194;4.098;2023-05-19T09:16:51;19.40;99.90
14529;DHT22;7351;51.194;4.098;2023-05-19T09:19:18;19.40;99.90
14529;DHT22;7351;51.194;4.098;2023-05-19T09:21:45;19.40;99.90
14529;DHT22;7351;51.194;4.098;2023-05-19T09:24:12;19.40;99.90
14529;DHT22;7351;51.194;4.098;2023-05-19T09:26:40;19.40;99.90
14529;DHT22;7351;51.194;4.098;2023-05-19T09:29:13;19.40;99.90
14529;DHT22;7351;51.194;4.098;2023-05-19T09:31:48;19.50;99.90
14529;DHT22;7351;51.194;4.098;2023-05-19T09:34:16;19.50;99.90
14529;DHT22;7351;51.194;4.098;2023-05-19T09:36:43;19.50;99.90
14529;DHT22;7351;51.194;4.098;2023-05-19T09:39:13;19.50;99.90
14529;DHT22;7351;51.194;4.098;2023-05-19T09:41:40;19.50;99.90
14529;DHT22;7351;51.194;4.098;2023-05-19T09:44:13;19.50;99.90
14529;DHT22;7351;51.194;4.098;2023-05-19T09:46:47;19.60;99.90
14529;DHT22;7351;51.194;4.098;2023-05-19T09:49:18;19.60;99.90
14529;DHT22;7351;51.194;4.098;2023-05-19T09:51:48;19.60;99.90
14529;DHT22;7351;51.194;4.098;2023-05-19T09:54:15;19.60;99.90
14529;DHT22;7351;51.194;4.098;2023-05-19T09:56:43;19.60;99.90
14529;DHT22;7351;51.194;4.098;2023-05-19T09:59:10;19.70;99.90
14529;DHT22;7351;51.194;4.098;2023-05-19T10:01:41;19.70;99.90
14529;DHT22;7351;51.194;4.098;2023-05-19T10:04:12;19.70;99.90
14529;DHT22;7351;51.194;4.098;2023-05-19T10:06:40;19.70;99.90
14529;DHT22;7351;51.194;4.098;2023-05-19T10:09:07;19.70;99.90
14529;DHT22;7351;51.194;4.098;2023-05-19T10:11:34;19.70;99.90
14529;DHT22;7351;51.194;4.098;2023-05-19T10:14:01;19.70;99.90
14529;DHT22;7351;51.194;4.098;2023-05-19T10:16:29;19.70;99.90
14529;DHT22;7351;51.194;4.098;2023-05-19T10:18:58;19.80;99.90
14529;DHT22;7351;51.194;4.098;2023-05-19T10:21:26;19.80;99.90
14529;DHT22;7351;51.194;4.098;2023-05-19T10:23:53;19.80;99.90
14529;DHT22;7351;51.194;4.098;2023-05-19T10:26:21;19.80;99.90
14529;DHT22;7351;51.194;4.098;2023-05-19T10:28:49;19.80;99.90
14529;DHT22;7351;51.194;4.098;2023-05-19T10:31:18;19.80;99.90
14529;DHT22;7351;51.194;4.098;2023-05-19T10:34:03;19.90;99.90
14529;DHT22;7351;51.194;4.098;2023-05-19T10:36:43;19.90;99.90
14529;DHT22;7351;51.194;4.098;2023-05-19T10:39:16;19.90;99.90
14529;DHT22;7351;51.194;4.098;2023-05-19T10:41:52;19.90;99.90
14529;DHT22;7351;51.194;4.098;2023-05-19T10:44:30;19.90;99.90
14529;DHT22;7351;51.194;4.098;2023-05-19T10:46:59;19.90;99.90
14529;DHT22;7351;51.194;4.098;2023-05-19T10:49:28;19.90;99.90
14529;DHT22;7351;51.194;4.098;2023-05-19T10:52:00;20.00;99.90
14529;DHT22;7351;51.194;4.098;2023-05-19T10:54:39;20.00;99.90
14529;DHT22;7351;51.194;4.098;2023-05-19T10:57:07;20.00;99.90
14529;DHT22;7351;51.194;4.098;2023-05-19T10:59:36;20.10;99.90
14529;DHT22;7351;51.194;4.098;2023-05-19T11:02:04;20.00;99.90
14529;DHT22;7351;51.194;4.098;2023-05-19T11:04:47;20.10;99.90
14529;DHT22;7351;51.194;4.098;2023-05-19T11:07:16;20.10;99.90
14529;DHT22;7351;51.194;4.098;2023-05-19T11:09:48;20.10;99.90
14529;DHT22;7351;51.194;4.098;2023-05-19T11:12:19;20.10;99.90
14529;DHT22;7351;51.194;4.098;2023-05-19T11:14:46;20.10;99.90
14529;DHT22;7351;51.194;4.098;2023-05-19T11:17:14;20.10;99.90
14529;DHT22;7351;51.194;4.098;2023-05-19T11:19:51;20.10;99.90
14529;DHT22;7351;51.194;4.098;2023-05-19T11:22:22;20.20;99.90
14529;DHT22;7351;51.194;4.098;2023-05-19T11:24:49;20.20;99.90
14529;DHT22;7351;51.194;4.098;2023-05-19T11:27:24;20.20;99.90
14529;DHT22;7351;51.194;4.098;2023-05-19T11:29:52;20.20;99.90
14529;DHT22;7351;51.194;4.098;2023-05-19T11:32:20;20.20;99.90
14529;DHT22;7351;51.194;4.098;2023-05-19T11:34:48;20.20;99.90
14529;DHT22;7351;51.194;4.098;2023-05-19T11:37:15;20.30;99.90
14529;DHT22;7351;51.194;4.098;2023-05-19T11:39:44;20.30;99.90
14529;DHT22;7351;51.194;4.098;2023-05-19T11:42:11;20.30;99.90
14529;DHT22;7351;51.194;4.098;2023-05-19T11:44:39;20.30;99.90
14529;DHT22;7351;51.194;4.098;2023-05-19T11:47:07;20.30;99.90
14529;DHT22;7351;51.194;4.098;2023-05-19T11:49:35;20.40;99.90
14529;DHT22;7351;51.194;4.098;2023-05-19T11:52:03;20.40;99.90
14529;DHT22;7351;51.194;4.098;2023-05-19T11:54:32;20.50;99.90
14529;DHT22;7351;51.194;4.098;2023-05-19T11:57:01;20.50;99.90
14529;DHT22;7351;51.194;4.098;2023-05-19T11:59:29;20.50;99.90
14529;DHT22;7351;51.194;4.098;2023-05-19T12:02:00;20.50;99.90
14529;DHT22;7351;51.194;4.098;2023-05-19T12:04:29;20.50;99.90
14529;DHT22;7351;51.194;4.098;2023-05-19T12:06:56;20.50;99.90
14529;DHT22;7351;51.194;4.098;2023-05-19T12:09:27;20.60;99.90
14529;DHT22;7351;51.194;4.098;2023-05-19T12:11:54;20.60;99.90
14529;DHT22;7351;51.194;4.098;2023-05-19T12:14:21;20.60;99.90
14529;DHT22;7351;51.194;4.098;2023-05-19T12:16:49;20.60;99.90
14529;DHT22;7351;51.194;4.098;2023-05-19T12:19:16;20.70;99.90
14529;DHT22;7351;51.194;4.098;2023-05-19T12:21:43;20.70;99.90
14529;DHT22;7351;51.194;4.098;2023-05-19T12:24:10;20.70;99.90
14529;DHT22;7351;51.194;4.098;2023-05-19T12:26:39;20.80;99.90
14529;DHT22;7351;51.194;4.098;2023-05-19T12:29:06;20.80;99.90
14529;DHT22;7351;51.194;4.098;2023-05-19T12:31:33;20.90;99.90
14529;DHT22;7351;51.194;4.098;2023-05-19T12:34:00;20.90;99.90
14529;DHT22;7351;51.194;4.098;2023-05-19T12:36:28;20.90;99.90
14529;DHT22;7351;51.194;4.098;2023-05-19T12:38:56;21.00;99.90
14529;DHT22;7351;51.194;4.098;2023-05-19T12:41:24;21.00;99.90
14529;DHT22;7351;51.194;4.098;2023-05-19T12:43:53;21.10;99.90
14529;DHT22;7351;51.194;4.098;2023-05-19T12:46:20;21.10;99.90
14529;DHT22;7351;51.194;4.098;2023-05-19T12:48:47;21.10;99.90
14529;DHT22;7351;51.194;4.098;2023-05-19T12:51:17;21.10;99.90
14529;DHT22;7351;51.194;4.098;2023-05-19T12:53:45;21.10;99.90
14529;DHT22;7351;51.194;4.098;2023-05-19T12:56:12;21.10;99.90
14529;DHT22;7351;51.194;4.098;2023-05-19T12:58:40;21.20;99.90
14529;DHT22;7351;51.194;4.098;2023-05-19T13:01:14;21.20;99.90
14529;DHT22;7351;51.194;4.098;2023-05-19T13:03:42;21.20;99.90
14529;DHT22;7351;51.194;4.098;2023-05-19T13:06:09;21.20;99.90
14529;DHT22;7351;51.194;4.098;2023-05-19T13:08:36;21.20;99.90
14529;DHT22;7351;51.194;4.098;2023-05-19T13:11:04;21.30;99.90
14529;DHT22;7351;51.194;4.098;2023-05-19T13:13:32;21.30;99.90
14529;DHT22;7351;51.194;4.098;2023-05-19T13:15:59;21.30;99.90
14529;DHT22;7351;51.194;4.098;2023-05-19T13:18:27;21.30;99.90
14529;DHT22;7351;51.194;4.098;2023-05-19T13:20:56;21.30;99.90
14529;DHT22;7351;51.194;4.098;2023-05-19T13:23:23;21.30;99.90
14529;DHT22;7351;51.194;4.098;2023-05-19T13:25:50;21.30;99.90
14529;DHT22;7351;51.194;4.098;2023-05-19T13:28:17;21.40;99.90
14529;DHT22;7351;51.194;4.098;2023-05-19T13:30:44;21.30;99.90
14529;DHT22;7351;51.194;4.098;2023-05-19T13:33:11;21.40;99.90
14529;DHT22;7351;51.194;4.098;2023-05-19T13:35:40;21.40;99.90
14529;DHT22;7351;51.194;4.098;2023-05-19T13:38:07;21.40;99.90
14529;DHT22;7351;51.194;4.098;2023-05-19T13:40:35;21.50;99.90
14529;DHT22;7351;51.194;4.098;2023-05-19T13:43:02;21.50;99.90
14529;DHT22;7351;51.194;4.098;2023-05-19T13:45:29;21.60;99.90
14529;DHT22;7351;51.194;4.098;2023-05-19T13:47:56;21.50;99.90
14529;DHT22;7351;51.194;4.098;2023-05-19T13:50:23;21.60;99.90
14529;DHT22;7351;51.194;4.098;2023-05-19T13:52:52;21.60;99.90
14529;DHT22;7351;51.194;4.098;2023-05-19T13:55:19;21.60;99.90
14529;DHT22;7351;51.194;4.098;2023-05-19T13:57:47;21.70;99.90
14529;DHT22;7351;51.194;4.098;2023-05-19T14:00:14;21.70;99.90
14529;DHT22;7351;51.194;4.098;2023-05-19T14:02:42;21.70;99.90
14529;DHT22;7351;51.194;4.098;2023-05-19T14:05:09;21.70;99.90
14529;DHT22;7351;51.194;4.098;2023-05-19T14:07:37;21.70;99.90
14529;DHT22;7351;51.194;4.098;2023-05-19T14:10:06;21.70;99.90
14529;DHT22;7351;51.194;4.098;2023-05-19T14:12:34;21.80;99.90
14529;DHT22;7351;51.194;4.098;2023-05-19T14:15:01;21.80;99.90
14529;DHT22;7351;51.194;4.098;2023-05-19T14:17:28;21.80;99.90
14529;DHT22;7351;51.194;4.098;2023-05-19T14:19:59;21.90;99.90
14529;DHT22;7351;51.194;4.098;2023-05-19T14:22:26;21.90;99.90
14529;DHT22;7351;51.194;4.098;2023-05-19T14:24:55;21.90;99.90
14529;DHT22;7351;51.194;4.098;2023-05-19T14:27:24;21.90;99.90
14529;DHT22;7351;51.194;4.098;2023-05-19T14:29:51;22.00;99.90
14529;DHT22;7351;51.194;4.098;2023-05-19T14:32:17;22.00;99.90
14529;DHT22;7351;51.194;4.098;2023-05-19T14:34:44;22.00;99.90
14529;DHT22;7351;51.194;4.098;2023-05-19T14:37:11;22.00;99.90
14529;DHT22;7351;51.194;4.098;2023-05-19T14:39:38;22.00;99.90
14529;DHT22;7351;51.194;4.098;2023-05-19T14:42:05;22.00;99.90
14529;DHT22;7351;51.194;4.098;2023-05-19T14:44:33;22.00;99.90
14529;DHT22;7351;51.194;4.098;2023-05-19T14:47:02;22.10;99.90
14529;DHT22;7351;51.194;4.098;2023-05-19T14:49:31;22.00;99.90
14529;DHT22;7351;51.194;4.098;2023-05-19T14:51:58;22.00;99.90
14529;DHT22;7351;51.194;4.098;2023-05-19T14:54:25;22.10;99.90
14529;DHT22;7351;51.194;4.098;2023-05-19T14:56:52;22.10;99.90
14529;DHT22;7351;51.194;4.098;2023-05-19T14:59:19;22.00;99.90
14529;DHT22;7351;51.194;4.098;2023-05-19T15:01:48;22.10;99.90
14529;DHT22;7351;51.194;4.098;2023-05-19T15:04:15;22.10;99.90
14529;DHT22;7351;51.194;4.098;2023-05-19T15:06:42;22.10;99.90
14529;DHT22;7351;51.194;4.098;2023-05-19T15:09:09;22.20;99.90
14529;DHT22;7351;51.194;4.098;2023-05-19T15:11:39;22.10;99.90
14529;DHT22;7351;51.194;4.098;2023-05-19T15:14:06;22.20;99.80
14529;DHT22;7351;51.194;4.098;2023-05-19T15:16:33;22.20;99.80
14529;DHT22;7351;51.194;4.098;2023-05-19T15:19:01;22.20;99.70
14529;DHT22;7351;51.194;4.098;2023-05-19T15:21:28;22.20;99.60
14529;DHT22;7351;51.194;4.098;2023-05-19T15:23:55;22.20;99.20
14529;DHT22;7351;51.194;4.098;2023-05-19T15:26:22;22.20;98.80
14529;DHT22;7351;51.194;4.098;2023-05-19T15:28:51;22.20;98.40
14529;DHT22;7351;51.194;4.098;2023-05-19T15:31:18;22.20;98.20
14529;DHT22;7351;51.194;4.098;2023-05-19T15:33:46;22.20;98.00
14529;DHT22;7351;51.194;4.098;2023-05-19T15:36:14;22.20;97.80
14529;DHT22;7351;51.194;4.098;2023-05-19T15:38:41;22.20;97.70
14529;DHT22;7351;51.194;4.098;2023-05-19T15:41:09;22.20;97.40
14529;DHT22;7351;51.194;4.098;2023-05-19T15:43:36;22.20;97.20
14529;DHT22;7351;51.194;4.098;2023-05-19T15:46:03;22.30;97.20
14529;DHT22;7351;51.194;4.098;2023-05-19T15:48:30;22.30;97.10
14529;DHT22;7351;51.194;4.098;2023-05-19T15:50:57;22.30;96.90
14529;DHT22;7351;51.194;4.098;2023-05-19T15:53:26;22.30;96.70